Time;durP1;ratioP1;P1;durP2;ratioP2;P2;SDS_P1;SDS_P2;PMS_P1;PMS_P2;Temp;Humidity;BMP_temperature;BMP_pressure;BME280_temperature;BME280_humidity;BME280_pressure;Samples;Min_cycle;Max_cycle;Signal;HPM_P1;HPM_P2
2022/01/23 00:02:23;;;;;;;21.75;10.38;;;;;;;-0.51;51.39;100842.00;4387154;32;35105;-54
2022/01/23 00:04:53;;;;;;;19.65;9.70;;;;;;;-0.52;51.81;100855.00;4384347;32;35012;-54
2022/01/23 00:07:22;;;;;;;26.02;13.02;;;;;;;-0.62;52.37;100854.09;4387385;32;33746;-54
2022/01/23 00:09:49;;;;;;;12.00;6.22;;;;;;;-0.56;52.39;100854.13;4388247;32;34012;-54
2022/01/23 00:12:21;;;;;;;;;;;;;;;-0.79;52.23;100864.47;4387652;32;34426;-55
2022/01/23 00:17:35;;;;;;;9.43;4.12;;;;;;;-0.55;51.79;100870.56;4372961;32;34324;-54
2022/01/23 00:20:11;;;;;;;10.63;5.00;;;;;;;-0.60;51.68;100868.81;4372206;32;33899;-54
2022/01/23 00:22:46;;;;;;;13.27;5.00;;;;;;;-0.65;52.77;100867.94;4372869;32;34049;-54
2022/01/23 00:30:48;;;;;;;8.10;3.87;;;;;;;-1.24;52.36;100866.91;4388045;32;34183;-54
2022/01/23 00:33:17;;;;;;;8.98;4.00;;;;;;;-0.97;51.92;100869.59;4386689;32;34626;-54
2022/01/23 00:35:46;;;;;;;10.90;4.78;;;;;;;-0.91;52.17;100867.00;4375663;32;33909;-54
2022/01/23 00:38:14;;;;;;;8.27;3.60;;;;;;;-0.85;52.51;100870.50;4371856;32;33378;-54
2022/01/23 00:40:44;;;;;;;8.80;4.57;;;;;;;-0.94;52.98;100874.78;4374393;32;33472;-54
2022/01/23 00:43:17;;;;;;;9.70;3.72;;;;;;;-0.60;52.15;100871.41;4374565;32;34116;-54
2022/01/23 00:45:49;;;;;;;9.32;4.50;;;;;;;-0.79;52.69;100867.06;4374655;32;34118;-54
2022/01/23 00:48:18;;;;;;;8.38;3.78;;;;;;;-0.94;52.21;100860.09;4374765;32;33419;-55
2022/01/23 00:50:46;;;;;;;10.02;4.53;;;;;;;-0.81;51.96;100869.62;4373701;32;34556;-54
2022/01/23 00:53:13;;;;;;;12.77;4.60;;;;;;;-0.90;52.82;100871.34;4374539;32;35159;-55
2022/01/23 00:55:43;;;;;;;12.00;4.22;;;;;;;-0.80;52.95;100876.53;4383711;32;34893;-54
2022/01/23 00:58:11;;;;;;;11.32;4.40;;;;;;;-0.82;53.24;100875.69;4389138;32;33935;-55
2022/01/23 01:00:41;;;;;;;9.45;4.65;;;;;;;-0.90;52.69;100872.19;4389556;32;33714;-54
2022/01/23 01:03:09;;;;;;;10.20;4.95;;;;;;;-0.72;52.47;100873.97;4388748;32;34417;-54
2022/01/23 01:05:36;;;;;;;;;;;;;;;-0.85;52.62;100870.50;4388349;32;33809;-54
2022/01/23 01:08:05;;;;;;;11.12;4.20;;;;;;;-0.66;52.28;100867.94;4388736;32;33498;-54
2022/01/23 01:10:41;;;;;;;9.95;4.32;;;;;;;-0.76;52.06;100867.03;4389533;32;33816;-54
2022/01/23 01:13:12;;;;;;;10.27;4.97;;;;;;;-1.02;52.99;100864.41;4389349;32;34073;-54
2022/01/23 01:32:05;;;;;;;8.27;3.72;;;;;;;-0.96;52.48;100832.44;4389454;32;33387;-54
2022/01/23 01:34:41;;;;;;;9.05;3.40;;;;;;;-1.12;52.92;100831.53;4387759;32;34360;-54
2022/01/23 01:37:11;;;;;;;8.10;3.55;;;;;;;-1.19;52.68;100834.09;4377561;32;33642;-54
2022/01/23 01:39:43;;;;;;;8.90;3.40;;;;;;;-1.30;52.65;100834.91;4374725;32;34401;-54
2022/01/23 01:42:11;;;;;;;7.30;3.30;;;;;;;-1.43;53.94;100844.38;4373418;32;34571;-54
2022/01/23 01:44:38;;;;;;;9.32;3.35;;;;;;;-1.39;53.30;100840.94;4374281;32;35307;-55
2022/01/23 01:47:07;;;;;;;8.40;3.65;;;;;;;-1.59;53.85;100836.53;4374117;32;34009;-54
2022/01/23 01:49:35;;;;;;;10.82;3.90;;;;;;;-1.49;53.62;100842.62;4374049;32;33803;-54
2022/01/23 01:52:04;;;;;;;;;;;;;;;-1.44;53.32;100843.50;4373807;32;33590;-54
2022/01/23 01:54:33;;;;;;;13.15;3.55;;;;;;;-1.79;54.43;100859.72;4373501;32;34443;-55
2022/01/23 01:57:08;;;;;;;8.05;2.80;;;;;;;-1.41;53.95;100855.62;4375391;32;34158;-54
2022/01/23 02:10:35;;;;;;;11.07;4.15;;;;;;;-1.36;52.78;100846.13;4389310;32;33664;-54
2022/01/23 02:13:08;;;;;;;;;;;;;;;-1.44;53.06;100843.50;4388978;32;33514;-54
2022/01/23 02:57:03;;;;;;;8.95;3.37;;;;;;;-1.48;55.12;100831.41;4374028;32;34748;-55
2022/01/23 02:59:35;;;;;;;7.85;3.62;;;;;;;-1.32;54.74;100826.28;4386640;32;34110;-53
2022/01/23 03:02:44;;;;;;;7.82;3.55;;;;;;;-1.31;54.68;100825.44;4388440;32;35039;-55
2022/01/23 03:05:07;;;;;;;8.35;3.67;;;;;;;-1.34;54.48;100823.66;4387915;32;33658;-55
2022/01/23 03:10:18;;;;;;;8.02;3.70;;;;;;;-1.17;54.24;100833.25;4387301;32;34428;-54
2022/01/23 03:26:49;;;;;;;8.63;3.87;;;;;;;-1.14;54.76;100831.53;4375439;32;34046;-54
2022/01/23 03:29:25;;;;;;;9.68;4.25;;;;;;;-0.90;54.27;100829.84;4386383;32;34038;-55
2022/01/23 03:34:24;;;;;;;10.45;4.00;;;;;;;-1.06;54.65;100840.19;4372537;32;33686;-54
2022/01/23 03:36:52;;;;;;;11.65;4.05;;;;;;;-1.00;54.57;100845.38;4373840;32;34620;-54
2022/01/23 03:39:20;;;;;;;10.20;4.20;;;;;;;-0.90;54.42;100850.59;4373361;32;34071;-54
2022/01/23 03:41:48;;;;;;;10.10;3.95;;;;;;;-1.03;55.03;100845.41;4373278;32;35260;-54
2022/01/23 03:44:17;;;;;;;8.35;3.72;;;;;;;-1.05;55.07;100841.94;4373313;32;34865;-54
2022/01/23 03:49:32;;;;;;;9.05;4.05;;;;;;;-1.10;55.22;100832.41;4373465;32;33494;-54
2022/01/23 03:52:08;;;;;;;9.50;3.62;;;;;;;-0.92;54.64;100829.84;4372716;32;34980;-54
2022/01/23 03:54:37;;;;;;;8.75;3.50;;;;;;;-0.97;54.83;100830.69;4374082;32;34896;-54
2022/01/23 03:57:06;;;;;;;11.02;4.05;;;;;;;-0.85;54.67;100825.56;4373291;32;33293;-54
2022/01/23 03:59:34;;;;;;;8.50;3.60;;;;;;;-0.87;54.84;100819.50;4372699;32;33466;-54
2022/01/23 04:02:03;;;;;;;9.55;3.60;;;;;;;-0.71;54.54;100817.78;4374195;32;33755;-54
2022/01/23 04:04:39;;;;;;;8.27;3.67;;;;;;;-0.71;54.18;100818.66;4372755;32;34898;-54
2022/01/23 04:07:14;;;;;;;9.85;3.70;;;;;;;-0.29;52.89;100829.03;4373431;32;33719;-54
2022/01/23 04:09:43;;;;;;;9.00;3.87;;;;;;;-0.44;53.27;100828.19;4372623;32;33704;-54
2022/01/23 04:12:26;;;;;;;7.72;4.07;;;;;;;-0.52;53.61;100823.87;4372907;32;34380;-54
2022/01/23 04:15:09;;;;;;;7.75;3.55;;;;;;;-0.38;53.34;100818.66;4378546;32;35005;-54
2022/01/23 04:34:57;;;;;;;8.45;3.28;;;;;;;-0.27;51.98;100830.78;4374226;32;34039;-53
2022/01/23 04:45:28;;;;;;;8.32;3.58;;;;;;;-0.13;51.16;100841.16;4375759;32;34006;-54
2022/01/23 05:04:32;;;;;;;8.13;3.05;;;;;;;-0.06;51.35;100842.00;4388597;32;34650;-54
2022/01/23 05:07:06;;;;;;;8.32;3.80;;;;;;;-0.02;51.48;100825.53;4387472;32;35992;-54
2022/01/23 05:09:33;;;;;;;8.57;4.15;;;;;;;-0.04;51.50;100827.25;4388665;32;34100;-54
2022/01/23 05:12:04;;;;;;;6.43;3.28;;;;;;;0.14;50.62;100837.63;4389498;32;33675;-54
2022/01/23 05:14:38;;;;;;;7.53;4.05;;;;;;;-0.02;50.87;100836.81;4389101;32;34028;-54
2022/01/23 05:17:10;;;;;;;9.23;3.80;;;;;;;0.09;50.92;100833.31;4386962;32;35094;-54
2022/01/23 05:19:41;;;;;;;8.70;3.47;;;;;;;0.14;50.70;100832.44;4389686;32;33765;-54
2022/01/23 05:24:39;;;;;;;;;;;;;;;0.37;49.81;100845.38;4388245;32;33767;-54
2022/01/23 05:27:09;;;;;;;10.35;3.40;;;;;;;0.03;50.40;100852.38;4378216;32;34820;-54
2022/01/23 05:29:37;;;;;;;8.77;4.00;;;;;;;-0.14;50.78;100860.16;4391917;32;34734;-53
2022/01/23 05:32:05;;;;;;;9.30;4.03;;;;;;;-0.10;50.91;100867.09;4404257;32;34425;-53
2022/01/23 05:34:32;;;;;;;9.57;3.83;;;;;;;-0.02;51.03;100870.56;4373703;32;33589;-54
2022/01/23 05:37:01;;;;;;;11.70;3.67;;;;;;;-0.25;50.97;100878.34;4374446;32;34503;-53
2022/01/23 05:39:33;;;;;;;9.02;3.85;;;;;;;-0.21;51.15;100869.69;4377904;32;33790;-54
2022/01/23 05:42:07;;;;;;;9.35;4.10;;;;;;;-0.26;51.44;100866.22;4392813;32;33630;-54
2022/01/23 05:44:39;;;;;;;8.82;3.65;;;;;;;-0.03;50.97;100875.75;4388467;32;34114;-55
2022/01/23 05:47:10;;;;;;;8.10;3.80;;;;;;;-0.02;50.88;100891.34;4401798;32;34310;-54
2022/01/23 05:49:38;;;;;;;9.70;4.05;;;;;;;-0.07;51.43;100889.59;4380026;32;34289;-54
2022/01/23 05:52:07;;;;;;;8.05;3.25;;;;;;;-0.21;51.79;100882.69;4375787;32;33471;-54
2022/01/23 05:54:35;;;;;;;;;;;;;;;0.12;50.80;100887.87;4367153;32;33598;-54
2022/01/23 05:57:03;;;;;;;8.73;3.20;;;;;;;0.27;50.59;100886.97;4373823;32;34513;-54
2022/01/23 05:59:31;;;;;;;6.97;3.20;;;;;;;0.23;50.19;100895.63;4374903;32;35485;-54
2022/01/23 06:01:59;;;;;;;7.85;3.28;;;;;;;0.12;50.53;100906.03;4378865;32;33727;-54
2022/01/23 06:04:27;;;;;;;;;;;;;;;0.07;51.04;100905.19;4387708;32;33981;-54
2022/01/23 06:06:59;;;;;;;8.82;3.50;;;;;;;-0.10;51.20;100908.63;4389443;32;34230;-54
2022/01/23 06:09:27;;;;;;;9.88;3.42;;;;;;;0.20;50.65;100906.91;4387082;32;34438;-54
2022/01/23 06:11:55;;;;;;;8.45;3.53;;;;;;;0.38;50.35;100916.38;4383363;32;33464;-54
2022/01/23 06:14:23;;;;;;;9.55;4.22;;;;;;;0.12;51.07;100912.09;4387169;32;34088;-54
2022/01/23 06:16:50;;;;;;;9.30;4.68;;;;;;;0.24;50.60;100915.56;4388927;32;34256;-54
2022/01/23 06:19:23;;;;;;;11.65;5.25;;;;;;;0.46;50.60;100909.44;4380134;32;33830;-54
2022/01/23 06:21:56;;;;;;;9.55;4.50;;;;;;;0.30;50.65;100918.13;4379893;32;32208;-54
2022/01/23 06:24:30;;;;;;;10.75;4.30;;;;;;;0.38;50.82;100927.63;4386004;32;33800;-53
2022/01/23 06:26:59;;;;;;;9.80;5.10;;;;;;;0.46;51.00;100924.16;4378614;32;34135;-54
2022/01/23 06:29:31;;;;;;;9.70;4.95;;;;;;;0.46;50.85;100934.56;4381819;32;34831;-54
2022/01/23 06:32:00;;;;;;;11.27;4.57;;;;;;;0.19;51.56;100931.13;4377732;32;33490;-54
2022/01/23 06:34:29;;;;;;;14.25;4.60;;;;;;;0.30;51.61;100925.94;4380450;32;34370;-54
2022/01/23 06:36:57;;;;;;;13.02;5.70;;;;;;;0.68;50.68;100927.56;4381444;32;35190;-54
2022/01/23 06:39:25;;;;;;;16.10;6.40;;;;;;;0.22;51.69;100925.94;4382243;32;34409;-54
2022/01/23 06:41:53;;;;;;;12.55;6.05;;;;;;;0.27;51.99;100925.94;4374207;32;33330;-54
2022/01/23 06:44:22;;;;;;;12.70;6.20;;;;;;;0.32;52.05;100926.78;4384849;32;34378;-54
2022/01/23 06:46:50;;;;;;;16.12;7.45;;;;;;;0.59;50.99;100926.72;4387658;32;34388;-54
2022/01/23 06:49:18;;;;;;;17.17;7.60;;;;;;;0.86;50.21;100917.12;4387878;32;33666;-54
2022/01/23 06:51:47;;;;;;;17.33;6.55;;;;;;;0.39;51.26;100938.91;4388414;32;33691;-54
2022/01/23 06:54:15;;;;;;;13.15;6.00;;;;;;;0.53;51.15;100931.94;4388938;32;34758;-53
2022/01/23 06:56:42;;;;;;;;;;;;;;;0.51;51.63;100935.44;4385924;32;34143;-54
2022/01/23 06:59:11;;;;;;;10.05;4.43;;;;;;;0.76;50.47;100929.28;4374205;32;34603;-54
2022/01/23 07:01:38;;;;;;;;;;;;;;;0.57;50.85;100943.22;4373799;32;33427;-54
2022/01/23 07:04:06;;;;;;;7.70;3.10;;;;;;;0.45;51.00;100935.44;4384217;32;33862;-54
2022/01/23 07:06:35;;;;;;;9.52;3.92;;;;;;;0.47;50.92;100946.72;4386973;32;34192;-54
2022/01/23 07:09:08;;;;;;;8.80;3.78;;;;;;;0.37;51.54;100945.84;4388069;32;34050;-54
2022/01/23 07:11:36;;;;;;;11.85;4.15;;;;;;;0.48;51.44;100944.06;4388231;32;34173;-53
